sensor_id;sensor_type;location;lat;lon;timestamp;pressure;altitude;pressure_sealevel;temperature;humidity
15529;BME280;7866;52.280;9.500;2022-07-03T00:02:13;100452.47;;;21.58;51.29
15529;BME280;7866;52.280;9.500;2022-07-03T00:07:16;100445.81;;;21.54;52.26
15529;BME280;7866;52.280;9.500;2022-07-03T00:12:18;100449.72;;;21.23;53.02
15529;BME280;7866;52.280;9.500;2022-07-03T00:17:19;100447.09;;;21.05;54.27
15529;BME280;7866;52.280;9.500;2022-07-03T00:22:24;100443.31;;;21.06;53.93
15529;BME280;7866;52.280;9.500;2022-07-03T00:27:26;100439.66;;;21.12;54.30
15529;BME280;7866;52.280;9.500;2022-07-03T00:32:28;100441.19;;;21.20;53.23
15529;BME280;7866;52.280;9.500;2022-07-03T00:37:31;100435.13;;;21.06;54.41
15529;BME280;7866;52.280;9.500;2022-07-03T00:42:37;100439.19;;;21.03;54.56
15529;BME280;7866;52.280;9.500;2022-07-03T00:47:40;100436.56;;;20.97;54.24
15529;BME280;7866;52.280;9.500;2022-07-03T00:52:46;100437.16;;;21.22;53.20
15529;BME280;7866;52.280;9.500;2022-07-03T00:57:48;100431.56;;;20.94;54.71
15529;BME280;7866;52.280;9.500;2022-07-03T01:02:53;100428.75;;;20.88;53.95
15529;BME280;7866;52.280;9.500;2022-07-03T01:08:07;100426.63;;;20.90;54.32
15529;BME280;7866;52.280;9.500;2022-07-03T01:13:14;100427.31;;;20.98;53.14
15529;BME280;7866;52.280;9.500;2022-07-03T01:18:27;100423.53;;;20.87;54.37
15529;BME280;7866;52.280;9.500;2022-07-03T01:23:46;100429.31;;;20.67;56.14
15529;BME280;7866;52.280;9.500;2022-07-03T01:28:59;100419.53;;;20.48;55.82
15529;BME280;7866;52.280;9.500;2022-07-03T01:34:09;100414.00;;;20.54;55.30
15529;BME280;7866;52.280;9.500;2022-07-03T01:39:16;100419.53;;;20.48;55.66
15529;BME280;7866;52.280;9.500;2022-07-03T01:44:20;100416.31;;;20.39;56.33
15529;BME280;7866;52.280;9.500;2022-07-03T01:49:26;100415.13;;;20.35;55.91
15529;BME280;7866;52.280;9.500;2022-07-03T01:54:28;100402.66;;;20.27;56.57
15529;BME280;7866;52.280;9.500;2022-07-03T01:59:32;100392.91;;;20.08;57.28
15529;BME280;7866;52.280;9.500;2022-07-03T02:04:43;100378.50;;;19.89;57.78
15529;BME280;7866;52.280;9.500;2022-07-03T02:09:49;100389.31;;;19.96;57.79
15529;BME280;7866;52.280;9.500;2022-07-03T02:15:01;100384.34;;;19.74;58.60
15529;BME280;7866;52.280;9.500;2022-07-03T02:20:06;100382.09;;;19.71;58.31
15529;BME280;7866;52.280;9.500;2022-07-03T02:25:16;100385.13;;;19.63;58.84
15529;BME280;7866;52.280;9.500;2022-07-03T02:30:22;100389.69;;;19.62;59.19
15529;BME280;7866;52.280;9.500;2022-07-03T02:35:26;100391.78;;;19.60;59.43
15529;BME280;7866;52.280;9.500;2022-07-03T02:40:34;100388.88;;;19.62;58.96
15529;BME280;7866;52.280;9.500;2022-07-03T02:45:42;100389.63;;;19.69;58.71
15529;BME280;7866;52.280;9.500;2022-07-03T02:50:47;100389.94;;;19.79;58.44
15529;BME280;7866;52.280;9.500;2022-07-03T02:55:58;100396.56;;;19.83;58.43
15529;BME280;7866;52.280;9.500;2022-07-03T03:01:20;100385.59;;;19.90;58.93
15529;BME280;7866;52.280;9.500;2022-07-03T03:06:26;100382.19;;;19.94;58.31
15529;BME280;7866;52.280;9.500;2022-07-03T03:11:32;100376.75;;;19.94;57.98
15529;BME280;7866;52.280;9.500;2022-07-03T03:16:47;100370.97;;;19.91;58.54
15529;BME280;7866;52.280;9.500;2022-07-03T03:21:57;100371.78;;;19.91;58.65
15529;BME280;7866;52.280;9.500;2022-07-03T03:27:00;100358.34;;;19.97;57.24
15529;BME280;7866;52.280;9.500;2022-07-03T03:32:05;100353.75;;;19.79;57.46
15529;BME280;7866;52.280;9.500;2022-07-03T03:37:07;100348.19;;;20.04;56.70
15529;BME280;7866;52.280;9.500;2022-07-03T03:42:09;100352.13;;;20.50;54.63
15529;BME280;7866;52.280;9.500;2022-07-03T03:47:12;100337.84;;;20.24;55.58
15529;BME280;7866;52.280;9.500;2022-07-03T03:52:13;100354.41;;;20.34;55.02
15529;BME280;7866;52.280;9.500;2022-07-03T03:57:17;100348.63;;;20.42;55.04
15529;BME280;7866;52.280;9.500;2022-07-03T04:02:20;100337.81;;;20.66;54.27
15529;BME280;7866;52.280;9.500;2022-07-03T04:07:22;100337.81;;;21.13;52.18
15529;BME280;7866;52.280;9.500;2022-07-03T04:12:24;100336.38;;;21.34;51.86
15529;BME280;7866;52.280;9.500;2022-07-03T04:17:27;100336.97;;;21.48;50.77
15529;BME280;7866;52.280;9.500;2022-07-03T04:22:28;100333.91;;;21.73;50.49
15529;BME280;7866;52.280;9.500;2022-07-03T04:27:30;100330.56;;;21.82;50.35
15529;BME280;7866;52.280;9.500;2022-07-03T04:32:34;100334.72;;;22.02;49.27
15529;BME280;7866;52.280;9.500;2022-07-03T04:37:35;100337.31;;;22.08;49.40
15529;BME280;7866;52.280;9.500;2022-07-03T04:42:37;100344.72;;;22.25;48.90
15529;BME280;7866;52.280;9.500;2022-07-03T04:47:40;100339.69;;;22.33;48.14
15529;BME280;7866;52.280;9.500;2022-07-03T04:52:42;100337.88;;;22.56;48.14
15529;BME280;7866;52.280;9.500;2022-07-03T04:57:44;100342.75;;;22.87;47.41
15529;BME280;7866;52.280;9.500;2022-07-03T05:02:47;100351.09;;;23.15;46.70
15529;BME280;7866;52.280;9.500;2022-07-03T05:07:48;100336.78;;;23.29;47.21
15529;BME280;7866;52.280;9.500;2022-07-03T05:12:50;100338.63;;;23.46;46.81
15529;BME280;7866;52.280;9.500;2022-07-03T05:17:53;100346.63;;;23.69;46.35
15529;BME280;7866;52.280;9.500;2022-07-03T05:22:55;100353.03;;;23.80;46.56
15529;BME280;7866;52.280;9.500;2022-07-03T05:27:57;100348.34;;;23.75;46.02
15529;BME280;7866;52.280;9.500;2022-07-03T05:33:01;100363.44;;;23.61;46.71
15529;BME280;7866;52.280;9.500;2022-07-03T05:38:03;100357.94;;;23.78;46.18
15529;BME280;7866;52.280;9.500;2022-07-03T05:43:04;100356.03;;;23.78;47.24
15529;BME280;7866;52.280;9.500;2022-07-03T05:48:08;100361.59;;;23.89;46.46
15529;BME280;7866;52.280;9.500;2022-07-03T05:53:09;100368.28;;;23.98;46.71
15529;BME280;7866;52.280;9.500;2022-07-03T05:58:11;100369.38;;;24.24;46.09
15529;BME280;7866;52.280;9.500;2022-07-03T06:03:14;100370.22;;;24.29;45.67
15529;BME280;7866;52.280;9.500;2022-07-03T06:08:15;100368.94;;;24.37;46.66
15529;BME280;7866;52.280;9.500;2022-07-03T06:13:17;100371.03;;;24.52;45.61
15529;BME280;7866;52.280;9.500;2022-07-03T06:18:20;100374.22;;;24.76;45.46
15529;BME280;7866;52.280;9.500;2022-07-03T06:23:22;100387.00;;;24.65;45.31
15529;BME280;7866;52.280;9.500;2022-07-03T06:28:24;100396.63;;;25.05;45.12
15529;BME280;7866;52.280;9.500;2022-07-03T06:33:27;100404.34;;;25.50;44.63
15529;BME280;7866;52.280;9.500;2022-07-03T06:38:28;100391.13;;;26.00;43.83
15529;BME280;7866;52.280;9.500;2022-07-03T06:43:30;100400.59;;;25.72;44.67
15529;BME280;7866;52.280;9.500;2022-07-03T06:48:33;100393.75;;;25.74;44.42
15529;BME280;7866;52.280;9.500;2022-07-03T06:53:35;100381.69;;;25.75;44.99
15529;BME280;7866;52.280;9.500;2022-07-03T06:58:36;100386.63;;;25.73;44.90
15529;BME280;7866;52.280;9.500;2022-07-03T07:03:39;100392.16;;;25.89;44.49
15529;BME280;7866;52.280;9.500;2022-07-03T07:08:41;100392.50;;;26.08;44.22
15529;BME280;7866;52.280;9.500;2022-07-03T07:13:43;100396.69;;;26.31;44.18
15529;BME280;7866;52.280;9.500;2022-07-03T07:18:46;100394.72;;;26.16;43.71
15529;BME280;7866;52.280;9.500;2022-07-03T07:23:47;100404.81;;;25.95;44.78
15529;BME280;7866;52.280;9.500;2022-07-03T07:28:49;100426.94;;;26.46;44.15
15529;BME280;7866;52.280;9.500;2022-07-03T07:33:53;100431.09;;;25.80;44.61
15529;BME280;7866;52.280;9.500;2022-07-03T07:38:54;100423.44;;;25.83;44.77
15529;BME280;7866;52.280;9.500;2022-07-03T07:43:56;100421.97;;;26.43;43.76
15529;BME280;7866;52.280;9.500;2022-07-03T07:49:00;100421.47;;;26.76;43.38
15529;BME280;7866;52.280;9.500;2022-07-03T07:54:02;100433.81;;;26.59;43.18
15529;BME280;7866;52.280;9.500;2022-07-03T07:59:04;100432.19;;;26.98;41.16
15529;BME280;7866;52.280;9.500;2022-07-03T08:04:07;100434.81;;;27.75;40.30
15529;BME280;7866;52.280;9.500;2022-07-03T08:09:25;100430.19;;;27.50;40.75
15529;BME280;7866;52.280;9.500;2022-07-03T08:14:27;100431.09;;;26.94;41.89
15529;BME280;7866;52.280;9.500;2022-07-03T08:19:30;100443.25;;;27.99;40.52
15529;BME280;7866;52.280;9.500;2022-07-03T08:24:32;100441.69;;;27.78;41.75
15529;BME280;7866;52.280;9.500;2022-07-03T08:29:33;100438.09;;;27.82;40.05
15529;BME280;7866;52.280;9.500;2022-07-03T08:34:37;100440.13;;;28.21;39.88
15529;BME280;7866;52.280;9.500;2022-07-03T08:39:38;100441.78;;;26.96;40.63
15529;BME280;7866;52.280;9.500;2022-07-03T08:44:41;100439.97;;;27.97;39.24
15529;BME280;7866;52.280;9.500;2022-07-03T08:49:46;100438.38;;;27.81;39.61
15529;BME280;7866;52.280;9.500;2022-07-03T08:54:48;100436.63;;;28.00;37.93
15529;BME280;7866;52.280;9.500;2022-07-03T08:59:52;100441.69;;;27.78;39.05
15529;BME280;7866;52.280;9.500;2022-07-03T09:04:56;100434.19;;;27.88;39.72
15529;BME280;7866;52.280;9.500;2022-07-03T09:09:59;100419.72;;;28.22;38.50
15529;BME280;7866;52.280;9.500;2022-07-03T09:15:03;100425.78;;;27.54;40.26
15529;BME280;7866;52.280;9.500;2022-07-03T09:20:07;100422.31;;;28.03;38.96
15529;BME280;7866;52.280;9.500;2022-07-03T09:25:11;100435.09;;;28.28;38.53
15529;BME280;7866;52.280;9.500;2022-07-03T09:30:14;100425.22;;;28.22;38.66
15529;BME280;7866;52.280;9.500;2022-07-03T09:35:19;100430.72;;;28.27;38.30
15529;BME280;7866;52.280;9.500;2022-07-03T09:40:22;100431.88;;;28.94;37.55
15529;BME280;7866;52.280;9.500;2022-07-03T09:45:24;100443.00;;;28.50;38.14
15529;BME280;7866;52.280;9.500;2022-07-03T09:50:27;100438.41;;;28.30;39.18
15529;BME280;7866;52.280;9.500;2022-07-03T09:55:29;100432.13;;;28.69;37.98
15529;BME280;7866;52.280;9.500;2022-07-03T10:00:31;100431.97;;;28.84;37.08
15529;BME280;7866;52.280;9.500;2022-07-03T10:05:37;100429.59;;;29.07;36.96
15529;BME280;7866;52.280;9.500;2022-07-03T10:10:41;100432.16;;;29.27;36.40
15529;BME280;7866;52.280;9.500;2022-07-03T10:15:43;100421.53;;;28.81;36.31
15529;BME280;7866;52.280;9.500;2022-07-03T10:20:47;100419.81;;;29.49;36.70
15529;BME280;7866;52.280;9.500;2022-07-03T10:25:50;100429.88;;;28.71;36.53
15529;BME280;7866;52.280;9.500;2022-07-03T10:30:52;100421.69;;;29.24;35.70
15529;BME280;7866;52.280;9.500;2022-07-03T10:35:57;100426.50;;;29.13;35.48
15529;BME280;7866;52.280;9.500;2022-07-03T10:41:01;100417.28;;;29.76;35.86
15529;BME280;7866;52.280;9.500;2022-07-03T10:46:23;100413.03;;;30.27;35.42
15529;BME280;7866;52.280;9.500;2022-07-03T10:51:27;100415.88;;;30.22;34.75
15529;BME280;7866;52.280;9.500;2022-07-03T10:56:29;100423.97;;;28.54;37.16
15529;BME280;7866;52.280;9.500;2022-07-03T11:01:31;100405.16;;;28.61;37.21
15529;BME280;7866;52.280;9.500;2022-07-03T11:07:09;100412.13;;;28.53;36.78
15529;BME280;7866;52.280;9.500;2022-07-03T11:12:11;100409.97;;;28.79;37.58
15529;BME280;7866;52.280;9.500;2022-07-03T11:17:16;100406.66;;;28.43;36.61
15529;BME280;7866;52.280;9.500;2022-07-03T11:22:23;100399.81;;;28.35;36.53
15529;BME280;7866;52.280;9.500;2022-07-03T11:27:26;100395.84;;;28.86;36.69
15529;BME280;7866;52.280;9.500;2022-07-03T11:32:51;100388.59;;;29.48;34.24
15529;BME280;7866;52.280;9.500;2022-07-03T11:37:58;100388.59;;;28.95;35.88
15529;BME280;7866;52.280;9.500;2022-07-03T11:43:00;100380.31;;;29.24;34.58
15529;BME280;7866;52.280;9.500;2022-07-03T11:48:06;100388.66;;;29.19;34.52
15529;BME280;7866;52.280;9.500;2022-07-03T11:53:23;100384.38;;;29.32;34.28
15529;BME280;7866;52.280;9.500;2022-07-03T11:58:27;100385.38;;;29.17;35.16
15529;BME280;7866;52.280;9.500;2022-07-03T12:03:40;100392.41;;;29.57;34.45
15529;BME280;7866;52.280;9.500;2022-07-03T12:08:43;100390.00;;;29.93;34.27
15529;BME280;7866;52.280;9.500;2022-07-03T12:13:47;100388.34;;;28.91;35.39
15529;BME280;7866;52.280;9.500;2022-07-03T12:18:51;100379.06;;;28.48;36.49
15529;BME280;7866;52.280;9.500;2022-07-03T12:23:56;100385.88;;;28.61;35.79
15529;BME280;7866;52.280;9.500;2022-07-03T12:28:58;100382.81;;;29.26;34.56
15529;BME280;7866;52.280;9.500;2022-07-03T12:34:01;100366.91;;;29.65;33.73
15529;BME280;7866;52.280;9.500;2022-07-03T12:39:04;100363.13;;;29.32;33.93
15529;BME280;7866;52.280;9.500;2022-07-03T12:44:06;100354.97;;;29.46;33.41
15529;BME280;7866;52.280;9.500;2022-07-03T12:49:10;100348.00;;;29.30;33.85
15529;BME280;7866;52.280;9.500;2022-07-03T12:54:15;100338.94;;;30.10;33.04
15529;BME280;7866;52.280;9.500;2022-07-03T12:59:24;100324.47;;;30.37;30.08
15529;BME280;7866;52.280;9.500;2022-07-03T13:04:30;100338.41;;;29.70;31.71
15529;BME280;7866;52.280;9.500;2022-07-03T13:09:35;100338.28;;;29.08;34.02
15529;BME280;7866;52.280;9.500;2022-07-03T13:14:36;100343.94;;;29.22;33.46
15529;BME280;7866;52.280;9.500;2022-07-03T13:19:38;100347.19;;;29.00;33.76
15529;BME280;7866;52.280;9.500;2022-07-03T13:24:41;100324.03;;;30.30;31.58
15529;BME280;7866;52.280;9.500;2022-07-03T13:29:43;100325.75;;;31.05;30.97
15529;BME280;7866;52.280;9.500;2022-07-03T13:34:44;100316.03;;;31.21;31.64
15529;BME280;7866;52.280;9.500;2022-07-03T13:39:48;100311.28;;;30.94;31.24
15529;BME280;7866;52.280;9.500;2022-07-03T13:44:49;100317.97;;;29.90;32.49
15529;BME280;7866;52.280;9.500;2022-07-03T13:49:51;100317.75;;;30.05;32.50
15529;BME280;7866;52.280;9.500;2022-07-03T13:54:54;100311.53;;;29.94;32.39
15529;BME280;7866;52.280;9.500;2022-07-03T13:59:56;100318.84;;;30.75;31.58
15529;BME280;7866;52.280;9.500;2022-07-03T14:04:57;100310.88;;;30.87;31.55
15529;BME280;7866;52.280;9.500;2022-07-03T14:10:01;100313.38;;;31.30;30.61
15529;BME280;7866;52.280;9.500;2022-07-03T14:15:03;100307.81;;;31.02;30.74
15529;BME280;7866;52.280;9.500;2022-07-03T14:20:06;100306.59;;;31.22;30.67
15529;BME280;7866;52.280;9.500;2022-07-03T14:25:09;100311.09;;;30.90;31.20
15529;BME280;7866;52.280;9.500;2022-07-03T14:30:12;100301.06;;;31.22;31.49
15529;BME280;7866;52.280;9.500;2022-07-03T14:35:31;100299.00;;;31.28;30.27
15529;BME280;7866;52.280;9.500;2022-07-03T14:40:35;100295.59;;;30.76;31.89
15529;BME280;7866;52.280;9.500;2022-07-03T14:45:36;100308.31;;;30.77;32.16
15529;BME280;7866;52.280;9.500;2022-07-03T14:50:39;100311.91;;;30.07;32.26
15529;BME280;7866;52.280;9.500;2022-07-03T14:55:42;100307.94;;;30.64;32.00
15529;BME280;7866;52.280;9.500;2022-07-03T15:00:48;100304.72;;;30.90;30.63
15529;BME280;7866;52.280;9.500;2022-07-03T15:05:51;100285.25;;;29.40;33.36
15529;BME280;7866;52.280;9.500;2022-07-03T15:11:01;100301.41;;;29.90;32.45
15529;BME280;7866;52.280;9.500;2022-07-03T15:16:04;100293.28;;;29.37;33.36
15529;BME280;7866;52.280;9.500;2022-07-03T15:21:06;100282.66;;;29.25;33.36
15529;BME280;7866;52.280;9.500;2022-07-03T15:26:09;100288.72;;;29.70;33.37
15529;BME280;7866;52.280;9.500;2022-07-03T15:31:11;100289.16;;;29.58;33.73
15529;BME280;7866;52.280;9.500;2022-07-03T15:36:14;100293.94;;;29.90;31.83
15529;BME280;7866;52.280;9.500;2022-07-03T15:41:25;100298.97;;;30.73;31.24
15529;BME280;7866;52.280;9.500;2022-07-03T15:46:36;100296.03;;;29.56;32.63
15529;BME280;7866;52.280;9.500;2022-07-03T15:51:44;100297.78;;;29.28;33.18
15529;BME280;7866;52.280;9.500;2022-07-03T15:56:51;100284.00;;;30.08;32.18
15529;BME280;7866;52.280;9.500;2022-07-03T16:01:59;100284.50;;;30.10;32.48
15529;BME280;7866;52.280;9.500;2022-07-03T16:07:18;100292.06;;;29.67;32.38
15529;BME280;7866;52.280;9.500;2022-07-03T16:12:23;100297.53;;;29.48;32.53
15529;BME280;7866;52.280;9.500;2022-07-03T16:17:26;100302.38;;;29.37;33.36
15529;BME280;7866;52.280;9.500;2022-07-03T16:22:28;100301.34;;;29.52;32.92
15529;BME280;7866;52.280;9.500;2022-07-03T16:27:32;100290.25;;;29.14;33.65
15529;BME280;7866;52.280;9.500;2022-07-03T16:32:36;100282.13;;;28.99;34.29
15529;BME280;7866;52.280;9.500;2022-07-03T16:37:43;100279.16;;;28.66;34.35
15529;BME280;7866;52.280;9.500;2022-07-03T16:42:47;100279.66;;;28.68;33.86
15529;BME280;7866;52.280;9.500;2022-07-03T16:47:50;100285.31;;;28.58;34.28
15529;BME280;7866;52.280;9.500;2022-07-03T16:52:53;100287.97;;;28.34;35.78
15529;BME280;7866;52.280;9.500;2022-07-03T16:57:57;100287.03;;;28.15;36.45
15529;BME280;7866;52.280;9.500;2022-07-03T17:02:59;100296.16;;;28.10;37.33
15529;BME280;7866;52.280;9.500;2022-07-03T17:08:01;100289.81;;;27.60;38.88
15529;BME280;7866;52.280;9.500;2022-07-03T17:13:05;100306.19;;;27.31;39.46
15529;BME280;7866;52.280;9.500;2022-07-03T17:18:07;100312.63;;;27.01;39.69
15529;BME280;7866;52.280;9.500;2022-07-03T17:23:11;100310.09;;;27.25;40.05
15529;BME280;7866;52.280;9.500;2022-07-03T17:28:15;100322.16;;;27.24;40.16
15529;BME280;7866;52.280;9.500;2022-07-03T17:33:17;100315.34;;;27.11;39.93
15529;BME280;7866;52.280;9.500;2022-07-03T17:38:20;100317.78;;;27.23;40.29
15529;BME280;7866;52.280;9.500;2022-07-03T17:43:26;100315.66;;;26.89;40.55
15529;BME280;7866;52.280;9.500;2022-07-03T17:48:29;100308.25;;;26.74;41.37
15529;BME280;7866;52.280;9.500;2022-07-03T17:53:32;100304.97;;;26.62;41.50
15529;BME280;7866;52.280;9.500;2022-07-03T17:58:35;100311.84;;;26.34;41.71
15529;BME280;7866;52.280;9.500;2022-07-03T18:03:37;100303.84;;;26.33;42.29
15529;BME280;7866;52.280;9.500;2022-07-03T18:08:42;100309.63;;;26.16;43.15
15529;BME280;7866;52.280;9.500;2022-07-03T18:13:51;100316.22;;;26.15;43.23
15529;BME280;7866;52.280;9.500;2022-07-03T18:18:56;100319.78;;;26.20;43.10
15529;BME280;7866;52.280;9.500;2022-07-03T18:23:59;100331.56;;;26.00;43.63
15529;BME280;7866;52.280;9.500;2022-07-03T18:29:05;100335.63;;;25.83;43.87
15529;BME280;7866;52.280;9.500;2022-07-03T18:34:08;100341.66;;;25.79;42.62
15529;BME280;7866;52.280;9.500;2022-07-03T18:39:11;100341.56;;;25.64;41.71
15529;BME280;7866;52.280;9.500;2022-07-03T18:44:15;100345.66;;;25.51;41.44
15529;BME280;7866;52.280;9.500;2022-07-03T18:49:17;100357.88;;;25.28;41.87
15529;BME280;7866;52.280;9.500;2022-07-03T18:54:27;100356.22;;;25.22;42.04
15529;BME280;7866;52.280;9.500;2022-07-03T18:59:40;100374.50;;;25.12;41.96
15529;BME280;7866;52.280;9.500;2022-07-03T19:04:48;100371.13;;;25.04;41.62
15529;BME280;7866;52.280;9.500;2022-07-03T19:09:58;100379.34;;;24.99;41.46
15529;BME280;7866;52.280;9.500;2022-07-03T19:15:05;100384.66;;;24.79;41.57
15529;BME280;7866;52.280;9.500;2022-07-03T19:20:09;100405.97;;;24.40;42.86
15529;BME280;7866;52.280;9.500;2022-07-03T19:25:11;100415.38;;;23.78;44.78
15529;BME280;7866;52.280;9.500;2022-07-03T19:30:15;100414.78;;;23.54;45.49
15529;BME280;7866;52.280;9.500;2022-07-03T19:35:17;100418.59;;;23.36;46.10
15529;BME280;7866;52.280;9.500;2022-07-03T19:40:19;100429.09;;;23.22;46.76
15529;BME280;7866;52.280;9.500;2022-07-03T19:45:22;100444.31;;;23.01;46.99
15529;BME280;7866;52.280;9.500;2022-07-03T19:50:25;100440.75;;;23.01;47.59
15529;BME280;7866;52.280;9.500;2022-07-03T19:55:28;100464.22;;;22.85;48.19
15529;BME280;7866;52.280;9.500;2022-07-03T20:00:31;100483.28;;;22.51;49.22
15529;BME280;7866;52.280;9.500;2022-07-03T20:05:33;100488.41;;;22.07;50.75
15529;BME280;7866;52.280;9.500;2022-07-03T20:10:35;100489.59;;;22.11;50.94
15529;BME280;7866;52.280;9.500;2022-07-03T20:15:38;100514.53;;;21.92;52.73
15529;BME280;7866;52.280;9.500;2022-07-03T20:20:40;100509.06;;;21.92;51.94
15529;BME280;7866;52.280;9.500;2022-07-03T20:25:42;100516.31;;;21.74;52.11
15529;BME280;7866;52.280;9.500;2022-07-03T20:30:45;100527.81;;;21.53;53.14
15529;BME280;7866;52.280;9.500;2022-07-03T20:35:47;100525.91;;;21.42;52.82
15529;BME280;7866;52.280;9.500;2022-07-03T20:40:49;100528.28;;;21.38;52.93
15529;BME280;7866;52.280;9.500;2022-07-03T20:45:53;100538.00;;;21.34;52.29
15529;BME280;7866;52.280;9.500;2022-07-03T20:50:55;100534.28;;;21.28;52.87
15529;BME280;7866;52.280;9.500;2022-07-03T20:55:56;100552.97;;;21.13;52.71
15529;BME280;7866;52.280;9.500;2022-07-03T21:01:00;100555.72;;;21.25;52.81
15529;BME280;7866;52.280;9.500;2022-07-03T21:06:01;100559.09;;;20.97;52.99
15529;BME280;7866;52.280;9.500;2022-07-03T21:11:18;100553.66;;;20.97;53.46
15529;BME280;7866;52.280;9.500;2022-07-03T21:16:39;100566.63;;;20.83;53.88
15529;BME280;7866;52.280;9.500;2022-07-03T21:21:42;100574.88;;;20.76;53.93
15529;BME280;7866;52.280;9.500;2022-07-03T21:26:45;100578.88;;;20.74;54.07
15529;BME280;7866;52.280;9.500;2022-07-03T21:31:50;100574.59;;;20.66;54.04
15529;BME280;7866;52.280;9.500;2022-07-03T21:36:52;100582.78;;;20.96;53.50
15529;BME280;7866;52.280;9.500;2022-07-03T21:41:54;100577.00;;;20.74;53.28
15529;BME280;7866;52.280;9.500;2022-07-03T21:46:57;100576.31;;;20.79;53.33
15529;BME280;7866;52.280;9.500;2022-07-03T21:51:59;100574.50;;;20.73;53.43
15529;BME280;7866;52.280;9.500;2022-07-03T21:57:01;100578.75;;;20.69;52.98
15529;BME280;7866;52.280;9.500;2022-07-03T22:02:04;100582.69;;;20.54;53.58
15529;BME280;7866;52.280;9.500;2022-07-03T22:07:06;100579.88;;;20.42;53.76
15529;BME280;7866;52.280;9.500;2022-07-03T22:12:08;100583.25;;;20.63;53.77
15529;BME280;7866;52.280;9.500;2022-07-03T22:17:29;100587.16;;;20.49;53.80
15529;BME280;7866;52.280;9.500;2022-07-03T22:22:31;100577.41;;;20.41;54.20
15529;BME280;7866;52.280;9.500;2022-07-03T22:27:33;100584.44;;;20.12;55.00
15529;BME280;7866;52.280;9.500;2022-07-03T22:32:38;100581.34;;;20.27;55.24
15529;BME280;7866;52.280;9.500;2022-07-03T22:37:40;100581.88;;;20.17;54.97
15529;BME280;7866;52.280;9.500;2022-07-03T22:42:46;100572.66;;;20.00;55.92
15529;BME280;7866;52.280;9.500;2022-07-03T22:47:50;100566.97;;;19.83;56.21
15529;BME280;7866;52.280;9.500;2022-07-03T22:52:51;100577.03;;;20.01;55.70
15529;BME280;7866;52.280;9.500;2022-07-03T22:57:53;100582.69;;;20.17;55.73
15529;BME280;7866;52.280;9.500;2022-07-03T23:02:56;100576.56;;;20.04;55.83
15529;BME280;7866;52.280;9.500;2022-07-03T23:07:58;100572.41;;;20.01;56.32
15529;BME280;7866;52.280;9.500;2022-07-03T23:13:00;100575.56;;;19.80;56.94
15529;BME280;7866;52.280;9.500;2022-07-03T23:18:03;100579.78;;;19.76;57.08
15529;BME280;7866;52.280;9.500;2022-07-03T23:23:04;100584.00;;;19.72;57.32
15529;BME280;7866;52.280;9.500;2022-07-03T23:28:07;100579.75;;;19.51;57.99
15529;BME280;7866;52.280;9.500;2022-07-03T23:33:10;100574.25;;;19.39;58.45
15529;BME280;7866;52.280;9.500;2022-07-03T23:38:12;100583.28;;;19.26;58.86
15529;BME280;7866;52.280;9.500;2022-07-03T23:43:13;100584.91;;;19.34;58.74
15529;BME280;7866;52.280;9.500;2022-07-03T23:48:16;100593.16;;;19.20;59.32
15529;BME280;7866;52.280;9.500;2022-07-03T23:53:32;100589.09;;;19.05;59.57
15529;BME280;7866;52.280;9.500;2022-07-03T23:58:34;100591.16;;;19.09;59.51
